createdAt,value
2017-09-15T00:00:30.650Z,99.99
2017-09-15T00:01:30.610Z,99.99
2017-09-15T00:02:30.607Z,99.99
2017-09-15T00:03:30.256Z,99.99
2017-09-15T00:04:30.552Z,99.99
2017-09-15T00:05:30.215Z,99.99
2017-09-15T00:06:30.199Z,99.99
2017-09-15T00:07:30.515Z,99.99
2017-09-15T00:08:30.470Z,99.99
2017-09-15T00:09:30.449Z,99.99
2017-09-15T00:10:30.428Z,99.99
2017-09-15T00:11:30.690Z,99.99
2017-09-15T00:12:30.397Z,99.99
2017-09-15T00:13:30.382Z,99.99
2017-09-15T00:14:30.369Z,99.99
2017-09-15T00:15:30.357Z,99.99
2017-09-15T00:16:30.314Z,99.99
2017-09-15T00:17:30.311Z,99.99
2017-09-15T00:18:30.286Z,99.99
2017-09-15T00:19:30.319Z,99.99
2017-09-15T00:20:30.239Z,99.99
2017-09-15T00:21:29.910Z,99.99
2017-09-15T00:22:30.209Z,99.99
2017-09-15T00:23:30.189Z,99.99
2017-09-15T00:24:30.159Z,99.99
2017-09-15T00:25:29.850Z,99.99
2017-09-15T00:26:30.139Z,99.99
2017-09-15T00:27:30.140Z,99.99
2017-09-15T00:28:29.779Z,99.99
2017-09-15T00:29:30.081Z,99.99
2017-09-15T00:30:30.071Z,99.99
2017-09-15T00:31:29.721Z,99.99
2017-09-15T00:32:30.025Z,99.99
2017-09-15T00:33:29.992Z,99.99
2017-09-15T00:34:29.986Z,99.99
2017-09-15T00:35:29.961Z,99.99
2017-09-15T00:36:29.938Z,99.99
2017-09-15T00:37:29.922Z,99.99
2017-09-15T00:38:29.902Z,99.99
2017-09-15T00:39:29.873Z,99.99
2017-09-15T00:40:29.860Z,99.99
2017-09-15T00:41:29.849Z,99.99
2017-09-15T00:42:29.832Z,99.99
2017-09-15T00:43:29.488Z,99.99
2017-09-15T00:44:29.482Z,99.99
2017-09-15T00:45:29.771Z,99.99
2017-09-15T00:46:29.752Z,99.99
2017-09-15T00:47:29.727Z,99.99
2017-09-15T00:48:29.721Z,99.99
2017-09-15T00:49:29.388Z,99.99
2017-09-15T00:50:29.677Z,99.99
2017-09-15T00:51:29.650Z,99.99
2017-09-15T00:52:29.333Z,99.99
2017-09-15T00:53:29.609Z,99.99
2017-09-15T00:54:29.601Z,99.99
2017-09-15T00:55:29.269Z,99.99
2017-09-15T00:56:29.569Z,99.99
2017-09-15T00:57:29.231Z,99.99
2017-09-15T00:58:29.518Z,99.99
2017-09-15T00:59:29.192Z,99.99
2017-09-15T01:00:29.479Z,99.99
2017-09-15T01:01:29.150Z,99.99
2017-09-15T01:02:29.453Z,99.99
2017-09-15T01:03:29.422Z,99.99
2017-09-15T01:04:29.419Z,99.99
2017-09-15T01:05:29.071Z,99.99
2017-09-15T01:06:29.050Z,99.99
2017-09-15T01:07:29.350Z,99.99
2017-09-15T01:08:29.328Z,99.99
2017-09-15T01:09:29.308Z,99.99
2017-09-15T01:10:29.293Z,99.99
2017-09-15T01:11:29.267Z,99.99
2017-09-15T01:12:29.248Z,99.99
2017-09-15T01:13:29.227Z,99.99
2017-09-15T01:14:28.899Z,99.99
2017-09-15T01:15:29.201Z,99.99
2017-09-15T01:16:29.220Z,99.99
2017-09-15T01:17:29.148Z,99.99
2017-09-15T01:18:29.128Z,99.99
2017-09-15T01:19:29.125Z,99.99
2017-09-15T01:20:28.790Z,99.99
2017-09-15T01:21:28.772Z,99.99
2017-09-15T01:22:28.744Z,99.99
2017-09-15T01:23:29.039Z,99.99
2017-09-15T01:24:29.028Z,99.99
2017-09-15T01:25:29.008Z,99.99
2017-09-15T01:26:28.979Z,99.99
2017-09-15T01:27:28.959Z,99.99
2017-09-15T01:28:28.944Z,99.99
2017-09-15T01:29:28.920Z,99.99
2017-09-15T01:30:28.919Z,99.99
2017-09-15T01:31:28.889Z,99.99
2017-09-15T01:32:28.870Z,99.99
2017-09-15T01:33:28.550Z,99.99
2017-09-15T01:34:28.839Z,99.99
2017-09-15T01:35:28.809Z,99.99
2017-09-15T01:36:28.484Z,99.99
2017-09-15T01:37:28.781Z,99.99
2017-09-15T01:38:28.766Z,99.99
2017-09-15T01:39:28.418Z,99.99
2017-09-15T01:40:28.720Z,99.99
2017-09-15T01:41:28.689Z,99.99
2017-09-15T01:42:28.689Z,99.99
2017-09-15T01:43:28.670Z,99.99
2017-09-15T01:44:28.639Z,99.99
2017-09-15T01:45:28.625Z,99.99
2017-09-15T01:46:28.599Z,99.99
2017-09-15T01:47:28.259Z,99.99
2017-09-15T01:48:28.557Z,99.99
2017-09-15T01:49:28.224Z,99.99
2017-09-15T01:50:28.209Z,99.99
2017-09-15T01:51:28.188Z,99.99
2017-09-15T01:52:28.165Z,99.99
2017-09-15T01:53:28.479Z,99.99
2017-09-15T01:54:28.130Z,99.99
2017-09-15T01:55:28.108Z,99.99
2017-09-15T01:56:28.092Z,99.99
2017-09-15T01:57:28.381Z,99.99
2017-09-15T01:58:28.358Z,99.99
2017-09-15T01:59:28.036Z,99.99
2017-09-15T02:00:28.320Z,99.99
2017-09-15T02:01:28.303Z,99.99
2017-09-15T02:02:28.281Z,99.99
2017-09-15T02:03:28.259Z,99.99
2017-09-15T02:04:28.249Z,99.99
2017-09-15T02:05:28.225Z,99.99
2017-09-15T02:06:28.209Z,99.99
2017-09-15T02:07:28.188Z,99.99
2017-09-15T02:08:28.171Z,99.99
2017-09-15T02:09:28.150Z,99.99
2017-09-15T02:10:27.815Z,99.99
2017-09-15T02:11:28.104Z,99.99
2017-09-15T02:12:28.087Z,99.99
2017-09-15T02:13:28.067Z,99.99
2017-09-15T02:14:27.743Z,99.99
2017-09-15T02:15:28.038Z,99.99
2017-09-15T02:16:28.031Z,99.99
2017-09-15T02:17:27.681Z,99.99
2017-09-15T02:18:27.669Z,99.99
2017-09-15T02:19:27.639Z,99.99
2017-09-15T02:20:27.626Z,99.99
2017-09-15T02:21:27.918Z,99.99
2017-09-15T02:22:27.901Z,99.99
2017-09-15T02:23:27.559Z,99.99
2017-09-15T02:24:27.850Z,99.99
2017-09-15T02:25:27.529Z,99.99
2017-09-15T02:26:27.831Z,99.99
2017-09-15T02:27:27.794Z,99.99
2017-09-15T02:28:27.468Z,99.99
2017-09-15T02:29:27.755Z,99.99
2017-09-15T02:30:27.429Z,99.99
2017-09-15T02:31:27.749Z,99.99
2017-09-15T02:32:27.698Z,99.99
2017-09-15T02:33:27.686Z,99.99
2017-09-15T02:34:27.361Z,99.99
2017-09-15T02:35:27.629Z,99.99
2017-09-15T02:36:27.627Z,99.99
2017-09-15T02:37:27.606Z,99.99
2017-09-15T02:38:27.585Z,99.99
2017-09-15T02:39:27.581Z,99.99
2017-09-15T02:40:27.550Z,99.99
2017-09-15T02:41:27.538Z,99.99
2017-09-15T02:42:27.500Z,99.99
2017-09-15T02:43:27.490Z,99.99
2017-09-15T02:44:27.486Z,99.99
2017-09-15T02:45:27.145Z,99.99
2017-09-15T02:46:27.428Z,99.99
2017-09-15T02:47:27.414Z,99.99
2017-09-15T02:48:27.390Z,99.99
2017-09-15T02:49:27.369Z,99.99
2017-09-15T02:50:27.359Z,99.99
2017-09-15T02:51:27.325Z,99.99
2017-09-15T02:52:26.999Z,99.99
2017-09-15T02:53:27.301Z,99.99
2017-09-15T02:54:27.281Z,99.99
2017-09-15T02:55:27.313Z,99.99
2017-09-15T02:56:27.241Z,99.99
2017-09-15T02:57:27.231Z,99.99
2017-09-15T02:58:27.199Z,99.99
2017-09-15T02:59:26.867Z,99.99
2017-09-15T03:00:27.159Z,99.99
2017-09-15T03:01:27.138Z,99.99
2017-09-15T03:02:26.803Z,99.99
2017-09-15T03:03:26.791Z,99.99
2017-09-15T03:04:26.769Z,99.99
2017-09-15T03:05:27.088Z,99.99
2017-09-15T03:06:27.038Z,99.99
2017-09-15T03:07:27.031Z,99.99
2017-09-15T03:08:26.696Z,99.99
2017-09-15T03:09:26.991Z,99.99
2017-09-15T03:10:26.660Z,99.99
2017-09-15T03:11:26.627Z,99.99
2017-09-15T03:12:26.926Z,99.99
2017-09-15T03:13:26.901Z,99.99
2017-09-15T03:14:26.579Z,99.99
2017-09-15T03:15:26.864Z,99.99
2017-09-15T03:16:26.846Z,99.99
2017-09-15T03:17:26.828Z,99.99
2017-09-15T03:18:26.812Z,99.99
2017-09-15T03:19:26.480Z,99.99
2017-09-15T03:20:26.460Z,99.99
2017-09-15T03:21:26.748Z,99.99
2017-09-15T03:22:26.731Z,99.99
2017-09-15T03:23:26.708Z,99.99
2017-09-15T03:24:26.710Z,99.99
2017-09-15T03:25:26.671Z,99.99
2017-09-15T03:26:26.654Z,99.99
2017-09-15T03:27:26.639Z,99.99
2017-09-15T03:28:26.618Z,99.99
2017-09-15T03:29:26.603Z,99.99
2017-09-15T03:30:26.583Z,99.99
2017-09-15T03:31:26.619Z,99.99
2017-09-15T03:32:26.228Z,99.99
2017-09-15T03:33:26.211Z,99.99
2017-09-15T03:34:26.489Z,99.99
2017-09-15T03:35:26.501Z,99.99
2017-09-15T03:36:26.152Z,99.99
2017-09-15T03:37:26.467Z,99.99
2017-09-15T03:38:26.422Z,99.99
2017-09-15T03:39:26.400Z,99.99
2017-09-15T03:40:26.390Z,99.99
2017-09-15T03:41:26.361Z,99.99
2017-09-15T03:42:26.338Z,99.99
2017-09-15T03:43:26.323Z,99.99
2017-09-15T03:44:26.321Z,99.99
2017-09-15T03:45:26.281Z,99.99
2017-09-15T03:46:26.272Z,99.99
2017-09-15T03:47:26.241Z,99.99
2017-09-15T03:48:26.240Z,99.99
2017-09-15T03:49:26.215Z,99.99
2017-09-15T03:50:25.877Z,99.99
2017-09-15T03:51:25.860Z,99.99
2017-09-15T03:52:26.149Z,99.99
2017-09-15T03:53:25.811Z,99.99
2017-09-15T03:54:25.800Z,99.99
2017-09-15T03:55:25.770Z,99.99
2017-09-15T03:56:25.803Z,99.99
2017-09-15T03:57:26.041Z,99.99
2017-09-15T03:58:26.022Z,99.99
2017-09-15T03:59:26.012Z,99.99
2017-09-15T04:00:25.988Z,99.99
2017-09-15T04:01:25.973Z,99.99
2017-09-15T04:02:25.950Z,99.99
2017-09-15T04:03:25.926Z,99.99
2017-09-15T04:04:25.910Z,99.99
2017-09-15T04:05:25.889Z,99.99
2017-09-15T04:06:25.872Z,99.99
2017-09-15T04:07:25.849Z,99.99
2017-09-15T04:08:25.831Z,99.99
2017-09-15T04:09:25.809Z,99.99
2017-09-15T04:10:25.479Z,99.99
2017-09-15T04:11:25.464Z,99.99
2017-09-15T04:12:25.760Z,99.99
2017-09-15T04:13:25.739Z,99.99
2017-09-15T04:14:25.710Z,99.99
2017-09-15T04:15:25.715Z,99.99
2017-09-15T04:16:25.362Z,99.99
2017-09-15T04:17:25.346Z,99.99
2017-09-15T04:18:25.320Z,99.99
2017-09-15T04:19:25.313Z,99.99
2017-09-15T04:20:25.598Z,99.99
2017-09-15T04:21:25.578Z,99.99
2017-09-15T04:22:25.552Z,99.99
2017-09-15T04:23:25.228Z,99.99
2017-09-15T04:24:25.210Z,99.99
2017-09-15T04:25:25.512Z,99.99
2017-09-15T04:26:25.484Z,99.99
2017-09-15T04:27:25.157Z,99.99
2017-09-15T04:28:25.127Z,99.99
2017-09-15T04:29:25.421Z,99.99
2017-09-15T04:30:25.088Z,99.99
2017-09-15T04:31:25.382Z,99.99
2017-09-15T04:32:25.050Z,99.99
2017-09-15T04:33:25.339Z,99.99
2017-09-15T04:34:25.328Z,99.99
2017-09-15T04:35:25.309Z,99.99
2017-09-15T04:36:25.292Z,99.99
2017-09-15T04:37:25.260Z,99.99
2017-09-15T04:38:24.932Z,99.99
2017-09-15T04:39:25.229Z,99.99
2017-09-15T04:40:25.203Z,99.99
2017-09-15T04:41:25.222Z,99.99
2017-09-15T04:42:24.859Z,99.99
2017-09-15T04:43:25.141Z,99.99
2017-09-15T04:44:25.118Z,99.99
2017-09-15T04:45:25.141Z,99.99
2017-09-15T04:46:25.086Z,99.99
2017-09-15T04:47:24.750Z,99.99
2017-09-15T04:48:24.742Z,99.99
2017-09-15T04:49:25.032Z,99.99
2017-09-15T04:50:25.019Z,99.99
2017-09-15T04:51:24.682Z,99.99
2017-09-15T04:52:24.986Z,99.99
2017-09-15T04:53:24.961Z,99.99
2017-09-15T04:54:24.932Z,99.99
2017-09-15T04:55:24.599Z,99.99
2017-09-15T04:56:24.583Z,99.99
2017-09-15T04:57:24.918Z,99.99
2017-09-15T04:58:24.542Z,99.99
2017-09-15T04:59:24.830Z,99.99
2017-09-15T05:00:24.808Z,99.99
2017-09-15T05:01:24.479Z,99.99
2017-09-15T05:02:24.770Z,99.99
2017-09-15T05:03:24.764Z,99.99
2017-09-15T05:04:24.731Z,99.99
2017-09-15T05:05:24.398Z,99.99
2017-09-15T05:06:24.701Z,99.99
2017-09-15T05:07:24.708Z,99.99
2017-09-15T05:08:24.338Z,99.99
2017-09-15T05:09:24.319Z,99.99
2017-09-15T05:10:24.610Z,99.99
2017-09-15T05:11:24.589Z,99.99
2017-09-15T05:12:24.578Z,99.99
2017-09-15T05:13:24.581Z,99.99
2017-09-15T05:14:24.538Z,99.99
2017-09-15T05:15:24.521Z,99.99
2017-09-15T05:16:24.189Z,99.99
2017-09-15T05:17:24.178Z,99.99
2017-09-15T05:18:24.453Z,99.99
2017-09-15T05:19:24.449Z,99.99
2017-09-15T05:20:24.432Z,99.99
2017-09-15T05:21:24.399Z,99.99
2017-09-15T05:22:24.390Z,99.99
2017-09-15T05:23:24.051Z,99.99
2017-09-15T05:24:24.339Z,99.99
2017-09-15T05:25:24.029Z,99.99
2017-09-15T05:26:24.311Z,99.99
2017-09-15T05:27:23.970Z,99.99
2017-09-15T05:28:23.949Z,99.99
2017-09-15T05:29:23.926Z,99.99
2017-09-15T05:30:24.220Z,99.99
2017-09-15T05:31:24.212Z,99.99
2017-09-15T05:32:24.172Z,99.99
2017-09-15T05:33:24.160Z,99.99
2017-09-15T05:34:24.149Z,99.99
2017-09-15T05:35:23.837Z,99.99
2017-09-15T05:36:24.099Z,99.99
2017-09-15T05:37:24.073Z,99.99
2017-09-15T05:38:24.060Z,99.99
2017-09-15T05:39:24.041Z,99.99
2017-09-15T05:40:24.028Z,99.99
2017-09-15T05:41:24.011Z,99.99
2017-09-15T05:42:23.992Z,99.99
2017-09-15T05:43:23.990Z,99.99
2017-09-15T05:44:23.952Z,99.99
2017-09-15T05:45:23.609Z,99.99
2017-09-15T05:46:23.952Z,99.99
2017-09-15T05:47:23.893Z,99.99
2017-09-15T05:48:23.560Z,99.99
2017-09-15T05:49:23.853Z,99.99
2017-09-15T05:50:23.842Z,99.99
2017-09-15T05:51:23.815Z,99.99
2017-09-15T05:52:23.500Z,99.99
2017-09-15T05:53:23.780Z,99.99
2017-09-15T05:54:23.814Z,99.99
2017-09-15T05:55:23.730Z,99.99
2017-09-15T05:56:23.707Z,99.99
2017-09-15T05:57:23.380Z,99.99
2017-09-15T05:58:23.669Z,99.99
2017-09-15T05:59:23.338Z,99.99
2017-09-15T06:00:23.628Z,99.99
2017-09-15T06:01:23.623Z,99.99
2017-09-15T06:02:23.589Z,99.99
2017-09-15T06:03:23.581Z,99.99
2017-09-15T06:04:23.232Z,99.99
2017-09-15T06:05:23.549Z,99.99
2017-09-15T06:06:23.578Z,99.99
2017-09-15T06:07:23.502Z,99.99
2017-09-15T06:08:23.160Z,99.99
2017-09-15T06:09:23.461Z,99.99
2017-09-15T06:10:23.428Z,99.99
2017-09-15T06:11:23.421Z,99.99
2017-09-15T06:12:23.450Z,99.99
2017-09-15T06:13:23.060Z,99.99
2017-09-15T06:14:23.049Z,99.99
2017-09-15T06:15:23.017Z,99.99
2017-09-15T06:16:23.369Z,99.99
2017-09-15T06:17:23.414Z,99.99
2017-09-15T06:18:23.273Z,99.99
2017-09-15T06:19:23.256Z,99.99
2017-09-15T06:20:23.241Z,99.99
2017-09-15T06:21:23.216Z,99.99
2017-09-15T06:22:22.888Z,99.99
2017-09-15T06:23:23.189Z,99.99
2017-09-15T06:24:22.850Z,99.99
2017-09-15T06:25:22.824Z,99.99
2017-09-15T06:26:23.123Z,99.99
2017-09-15T06:27:23.099Z,99.99
2017-09-15T06:28:23.075Z,99.99
2017-09-15T06:29:22.751Z,99.99
2017-09-15T06:30:23.036Z,99.99
2017-09-15T06:31:22.711Z,99.99
2017-09-15T06:32:22.693Z,99.99
2017-09-15T06:33:22.679Z,99.99
2017-09-15T06:34:22.970Z,99.99
2017-09-15T06:35:22.949Z,99.99
2017-09-15T06:36:22.928Z,99.99
2017-09-15T06:37:22.923Z,99.99
2017-09-15T06:38:22.890Z,99.99
2017-09-15T06:39:22.560Z,99.99
2017-09-15T06:40:22.536Z,99.99
2017-09-15T06:41:22.839Z,99.99
2017-09-15T06:42:22.518Z,99.99
2017-09-15T06:43:22.798Z,99.99
2017-09-15T06:44:22.471Z,99.99
2017-09-15T06:45:22.450Z,99.99
2017-09-15T06:46:22.439Z,99.99
2017-09-15T06:47:22.820Z,99.99
2017-09-15T06:48:22.719Z,99.99
2017-09-15T06:49:22.694Z,99.99
2017-09-15T06:50:22.662Z,99.99
2017-09-15T06:51:22.643Z,99.99
2017-09-15T06:52:22.309Z,99.99
2017-09-15T06:53:22.290Z,99.99
2017-09-15T06:54:22.282Z,99.99
2017-09-15T06:55:22.569Z,99.99
2017-09-15T06:56:22.541Z,99.99
2017-09-15T06:57:22.542Z,99.99
2017-09-15T06:58:22.510Z,99.99
2017-09-15T06:59:22.493Z,99.99
2017-09-15T07:00:22.472Z,99.99
2017-09-15T07:01:22.451Z,99.99
2017-09-15T07:02:22.460Z,99.99
2017-09-15T07:03:22.099Z,99.99
2017-09-15T07:04:22.090Z,99.99
2017-09-15T07:05:22.065Z,99.99
2017-09-15T07:06:22.049Z,99.99
2017-09-15T07:07:22.340Z,99.99
2017-09-15T07:08:22.321Z,99.99
2017-09-15T07:09:22.309Z,99.99
2017-09-15T07:10:22.279Z,99.99
2017-09-15T07:11:22.262Z,99.99
2017-09-15T07:12:22.252Z,99.99
2017-09-15T07:13:21.918Z,99.99
2017-09-15T07:14:22.198Z,99.99
2017-09-15T07:15:21.881Z,99.99
2017-09-15T07:16:21.898Z,99.99
2017-09-15T07:17:22.161Z,99.99
2017-09-15T07:18:21.818Z,99.99
2017-09-15T07:19:22.110Z,99.99
2017-09-15T07:20:21.785Z,99.99
2017-09-15T07:21:22.090Z,99.99
2017-09-15T07:22:22.059Z,99.99
2017-09-15T07:23:22.040Z,99.99
2017-09-15T07:24:21.710Z,99.99
2017-09-15T07:25:21.694Z,99.99
2017-09-15T07:26:21.979Z,99.99
2017-09-15T07:27:21.973Z,99.99
2017-09-15T07:28:21.632Z,99.99
2017-09-15T07:29:21.910Z,99.99
2017-09-15T07:30:21.909Z,99.99
2017-09-15T07:31:21.572Z,99.99
2017-09-15T07:32:21.860Z,99.99
2017-09-15T07:33:21.842Z,99.99
2017-09-15T07:34:21.829Z,99.99
2017-09-15T07:35:21.801Z,99.99
2017-09-15T07:36:21.787Z,99.99
2017-09-15T07:37:21.779Z,99.99
2017-09-15T07:38:21.764Z,99.99
2017-09-15T07:39:21.732Z,99.99
2017-09-15T07:40:21.404Z,99.99
2017-09-15T07:41:21.720Z,99.99
2017-09-15T07:42:21.670Z,99.99
2017-09-15T07:43:21.664Z,99.99
2017-09-15T07:44:21.633Z,99.99
2017-09-15T07:45:21.620Z,99.99
2017-09-15T07:46:21.591Z,99.99
2017-09-15T07:47:21.600Z,99.99
2017-09-15T07:48:21.252Z,99.99
2017-09-15T07:49:21.544Z,99.99
2017-09-15T07:50:21.539Z,99.99
2017-09-15T07:51:21.550Z,99.99
2017-09-15T07:52:21.177Z,99.99
2017-09-15T07:53:21.479Z,99.99
2017-09-15T07:54:21.450Z,99.99
2017-09-15T07:55:21.433Z,99.99
2017-09-15T07:56:21.411Z,99.99
2017-09-15T07:57:21.439Z,99.99
2017-09-15T07:58:21.376Z,99.99
2017-09-15T07:59:21.349Z,99.99
2017-09-15T08:00:21.331Z,99.99
2017-09-15T08:01:21.315Z,99.99
2017-09-15T08:02:21.301Z,99.99
2017-09-15T08:03:21.364Z,99.99
2017-09-15T08:04:20.940Z,99.99
2017-09-15T08:05:21.249Z,99.99
2017-09-15T08:06:20.909Z,99.99
2017-09-15T08:07:21.208Z,99.99
2017-09-15T08:08:21.179Z,99.99
2017-09-15T08:09:21.160Z,99.99
2017-09-15T08:10:20.829Z,99.99
2017-09-15T08:11:20.807Z,99.99
2017-09-15T08:12:20.803Z,99.99
2017-09-15T08:13:21.092Z,99.99
2017-09-15T08:14:21.061Z,99.99
2017-09-15T08:15:21.057Z,99.99
2017-09-15T08:16:21.030Z,99.99
2017-09-15T08:17:21.017Z,99.99
2017-09-15T08:18:20.990Z,99.99
2017-09-15T08:19:20.661Z,99.99
2017-09-15T08:20:20.950Z,99.99
2017-09-15T08:21:20.961Z,99.99
2017-09-15T08:22:20.602Z,99.99
2017-09-15T08:23:20.946Z,99.99
2017-09-15T08:24:20.563Z,99.99
2017-09-15T08:25:20.548Z,99.99
2017-09-15T08:26:20.533Z,99.99
2017-09-15T08:27:20.825Z,99.99
2017-09-15T08:28:20.806Z,99.99
2017-09-15T08:29:20.469Z,99.99
2017-09-15T08:30:20.783Z,99.99
2017-09-15T08:31:20.751Z,99.99
2017-09-15T08:32:20.736Z,99.99
2017-09-15T08:33:20.712Z,99.99
2017-09-15T08:34:20.383Z,99.99
2017-09-15T08:35:20.680Z,99.99
2017-09-15T08:36:20.678Z,99.99
2017-09-15T08:37:20.330Z,99.99
2017-09-15T08:38:20.617Z,99.99
2017-09-15T08:39:20.615Z,99.99
2017-09-15T08:40:20.576Z,99.99
2017-09-15T08:41:20.559Z,99.99
2017-09-15T08:42:20.542Z,99.99
2017-09-15T08:43:20.529Z,99.99
2017-09-15T08:44:20.511Z,99.99
2017-09-15T08:45:20.482Z,99.99
2017-09-15T08:46:20.469Z,99.99
2017-09-15T08:47:20.460Z,99.99
2017-09-15T08:48:20.441Z,99.99
2017-09-15T08:49:20.422Z,99.99
2017-09-15T08:50:20.398Z,99.99
2017-09-15T08:51:20.081Z,99.99
2017-09-15T08:52:20.382Z,99.99
2017-09-15T08:53:20.347Z,99.99
2017-09-15T08:54:20.321Z,99.99
2017-09-15T08:55:20.318Z,99.99
2017-09-15T08:56:20.293Z,99.99
2017-09-15T08:57:20.281Z,99.99
2017-09-15T08:58:20.255Z,99.99
2017-09-15T08:59:19.919Z,99.99
2017-09-15T09:00:20.212Z,99.99
2017-09-15T09:01:20.201Z,99.99
2017-09-15T09:02:20.181Z,99.99
2017-09-15T09:03:20.159Z,99.99
2017-09-15T09:04:20.142Z,99.99
2017-09-15T09:05:20.142Z,99.99
2017-09-15T09:06:20.110Z,99.99
2017-09-15T09:07:20.089Z,99.99
2017-09-15T09:08:20.072Z,99.99
2017-09-15T09:09:19.740Z,99.99
2017-09-15T09:10:20.059Z,99.99
2017-09-15T09:11:19.711Z,99.99
2017-09-15T09:12:19.997Z,99.99
2017-09-15T09:13:19.665Z,99.99
2017-09-15T09:14:19.647Z,99.99
2017-09-15T09:15:19.644Z,99.99
2017-09-15T09:16:19.622Z,99.99
2017-09-15T09:17:19.600Z,99.99
2017-09-15T09:18:19.890Z,99.99
2017-09-15T09:19:19.562Z,99.99
2017-09-15T09:20:19.869Z,99.99
2017-09-15T09:21:19.849Z,99.99
2017-09-15T09:22:19.520Z,99.99
2017-09-15T09:23:19.810Z,99.99
2017-09-15T09:24:19.791Z,99.99
2017-09-15T09:25:19.772Z,99.99
2017-09-15T09:26:19.747Z,99.99
2017-09-15T09:27:19.751Z,99.99
2017-09-15T09:28:19.414Z,99.99
2017-09-15T09:29:19.699Z,99.99
2017-09-15T09:30:19.676Z,99.99
2017-09-15T09:31:19.347Z,99.99
2017-09-15T09:32:19.341Z,99.99
2017-09-15T09:33:19.315Z,99.99
2017-09-15T09:34:19.621Z,99.99
2017-09-15T09:35:19.587Z,99.99
2017-09-15T09:36:19.570Z,99.99
2017-09-15T09:37:19.250Z,99.99
2017-09-15T09:38:19.538Z,99.99
2017-09-15T09:39:19.518Z,99.99
2017-09-15T09:40:19.499Z,99.99
2017-09-15T09:41:19.490Z,99.99
2017-09-15T09:42:19.466Z,99.99
2017-09-15T09:43:19.140Z,99.99
2017-09-15T09:44:19.440Z,99.99
2017-09-15T09:45:19.429Z,99.99
2017-09-15T09:46:19.412Z,99.99
2017-09-15T09:47:19.389Z,99.99
2017-09-15T09:48:19.370Z,99.99
2017-09-15T09:49:19.351Z,99.99
2017-09-15T09:50:19.342Z,99.99
2017-09-15T09:51:19.318Z,99.99
2017-09-15T09:52:19.309Z,99.99
2017-09-15T09:53:19.292Z,99.99
2017-09-15T09:54:19.270Z,99.99
2017-09-15T09:55:19.261Z,99.99
2017-09-15T09:56:18.925Z,99.99
2017-09-15T09:57:19.225Z,99.99
2017-09-15T09:58:19.209Z,99.99
2017-09-15T09:59:19.191Z,99.99
2017-09-15T10:00:19.199Z,99.99
2017-09-15T10:01:19.161Z,99.99
2017-09-15T10:02:19.140Z,99.99
2017-09-15T10:03:19.133Z,99.99
2017-09-15T10:04:19.123Z,99.99
2017-09-15T10:05:19.094Z,99.99
2017-09-15T10:06:19.012Z,99.99
2017-09-15T10:07:19.087Z,99.99
2017-09-15T10:08:19.052Z,99.99
2017-09-15T10:09:19.032Z,99.99
2017-09-15T10:10:19.026Z,99.99
2017-09-15T10:11:18.701Z,99.99
2017-09-15T10:12:18.680Z,99.99
2017-09-15T10:13:18.960Z,99.99
2017-09-15T10:14:18.640Z,99.99
2017-09-15T10:15:18.924Z,99.99
2017-09-15T10:16:18.970Z,99.99
2017-09-15T10:17:18.912Z,99.99
2017-09-15T10:18:18.568Z,99.99
2017-09-15T10:19:18.871Z,99.99
2017-09-15T10:20:18.853Z,99.99
2017-09-15T10:21:18.842Z,99.99
2017-09-15T10:22:18.814Z,99.99
2017-09-15T10:23:18.789Z,99.99
2017-09-15T10:24:18.790Z,99.99
2017-09-15T10:25:18.769Z,99.99
2017-09-15T10:26:18.745Z,99.99
2017-09-15T10:27:18.741Z,99.99
2017-09-15T10:28:18.710Z,99.99
2017-09-15T10:29:18.699Z,99.99
2017-09-15T10:30:18.680Z,99.99
2017-09-15T10:31:18.662Z,99.99
2017-09-15T10:32:18.649Z,99.99
2017-09-15T10:33:18.631Z,99.99
2017-09-15T10:34:18.619Z,99.99
2017-09-15T10:35:18.603Z,99.99
2017-09-15T10:36:18.270Z,99.99
2017-09-15T10:37:18.581Z,99.99
2017-09-15T10:38:18.569Z,99.99
2017-09-15T10:39:18.540Z,99.99
2017-09-15T10:40:18.532Z,98.92
2017-09-15T10:41:18.198Z,97.28
2017-09-15T10:42:18.501Z,96.12
2017-09-15T10:43:18.479Z,98.63
2017-09-15T10:44:18.158Z,98.19
2017-09-15T10:45:18.460Z,99.4
2017-09-15T10:46:18.139Z,99.99
2017-09-15T10:47:18.446Z,99.99
2017-09-15T10:48:18.105Z,98.24
2017-09-15T10:49:18.408Z,97.52
2017-09-15T10:50:18.387Z,96.56
2017-09-15T10:51:18.069Z,96.03
2017-09-15T10:52:18.360Z,96.42
2017-09-15T10:53:18.359Z,95.98
2017-09-15T10:54:18.343Z,96.17
2017-09-15T10:55:18.023Z,95.45
2017-09-15T10:56:18.309Z,94.54
2017-09-15T10:57:18.299Z,95.26
2017-09-15T10:58:17.971Z,94.1
2017-09-15T10:59:17.963Z,95.98
2017-09-15T11:00:18.255Z,95.36
2017-09-15T11:01:18.039Z,94.78
2017-09-15T11:02:17.920Z,95.36
2017-09-15T11:03:18.259Z,96.42
2017-09-15T11:04:18.207Z,96.8
2017-09-15T11:05:18.238Z,97.71
2017-09-15T11:06:18.180Z,97.71
2017-09-15T11:07:18.168Z,96.22
2017-09-15T11:08:17.850Z,95.21
2017-09-15T11:09:18.159Z,95.4
2017-09-15T11:10:18.123Z,94.73
2017-09-15T11:11:18.122Z,95.55
2017-09-15T11:12:18.111Z,96.32
2017-09-15T11:13:18.089Z,96.47
2017-09-15T11:14:18.069Z,97.62
2017-09-15T11:15:18.056Z,99.99
2017-09-15T11:16:18.038Z,99.99
2017-09-15T11:17:18.026Z,99.99
2017-09-15T11:18:18.018Z,99.99
2017-09-15T11:19:18.000Z,99.99
2017-09-15T11:20:17.991Z,99.99
2017-09-15T11:21:17.991Z,99.99
2017-09-15T11:22:17.960Z,99.99
2017-09-15T11:23:17.944Z,99.99
2017-09-15T11:24:17.931Z,99.99
2017-09-15T11:25:17.908Z,99.99
2017-09-15T11:26:17.887Z,99.99
2017-09-15T11:27:17.881Z,99.99
2017-09-15T11:28:17.869Z,99.99
2017-09-15T11:29:17.847Z,99.99
2017-09-15T11:30:17.847Z,99.99
2017-09-15T11:31:17.817Z,99.99
2017-09-15T11:32:17.797Z,99.99
2017-09-15T11:33:17.780Z,99.99
2017-09-15T11:34:17.787Z,99.99
2017-09-15T11:35:17.749Z,99.99
2017-09-15T11:36:17.416Z,99.99
2017-09-15T11:37:17.404Z,99.99
2017-09-15T11:38:17.718Z,99.99
2017-09-15T11:39:17.392Z,99.99
2017-09-15T11:40:17.669Z,99.99
2017-09-15T11:41:17.650Z,99.99
2017-09-15T11:42:17.640Z,99.99
2017-09-15T11:43:17.308Z,99.99
2017-09-15T11:44:17.596Z,99.99
2017-09-15T11:45:17.591Z,99.99
2017-09-15T11:46:17.582Z,99.99
2017-09-15T11:47:17.241Z,99.99
2017-09-15T11:48:17.546Z,99.99
2017-09-15T11:49:17.536Z,99.99
2017-09-15T11:50:17.498Z,99.99
2017-09-15T11:51:17.486Z,99.99
2017-09-15T11:52:17.471Z,99.99
2017-09-15T11:53:17.458Z,99.99
2017-09-15T11:54:17.438Z,99.99
2017-09-15T11:55:17.422Z,99.99
2017-09-15T11:56:17.110Z,99.99
2017-09-15T11:57:17.410Z,99.99
2017-09-15T11:58:17.385Z,99.88
2017-09-15T11:59:17.391Z,99.99
2017-09-15T12:00:17.035Z,99.99
2017-09-15T12:01:17.352Z,99.21
2017-09-15T12:02:17.314Z,98.92
2017-09-15T12:03:17.310Z,99.06
2017-09-15T12:04:17.290Z,98.77
2017-09-15T12:05:17.285Z,99.64
2017-09-15T12:06:16.952Z,99.99
2017-09-15T12:07:17.249Z,99.99
2017-09-15T12:08:17.223Z,99.99
2017-09-15T12:09:16.911Z,99.99
2017-09-15T12:10:16.896Z,99.99
2017-09-15T12:11:17.443Z,99.99
2017-09-15T12:12:17.172Z,99.99
2017-09-15T12:13:17.159Z,99.99
2017-09-15T12:14:17.158Z,99.99
2017-09-15T12:15:17.122Z,99.99
2017-09-15T12:16:16.825Z,99.99
2017-09-15T12:17:17.092Z,99.99
2017-09-15T12:18:16.771Z,99.99
2017-09-15T12:19:17.063Z,99.99
2017-09-15T12:20:17.059Z,99.99
2017-09-15T12:21:17.038Z,99.99
2017-09-15T12:22:17.021Z,99.99
2017-09-15T12:23:17.010Z,99.99
2017-09-15T12:24:16.989Z,99.99
2017-09-15T12:25:16.981Z,99.99
2017-09-15T12:26:16.960Z,99.99
2017-09-15T12:27:16.960Z,99.99
2017-09-15T12:28:16.954Z,99.99
2017-09-15T12:29:16.928Z,99.99
2017-09-15T12:30:16.911Z,99.99
2017-09-15T12:31:16.892Z,99.99
2017-09-15T12:32:16.861Z,99.99
2017-09-15T12:33:16.865Z,99.99
2017-09-15T12:34:16.831Z,99.99
2017-09-15T12:35:16.838Z,99.99
2017-09-15T12:36:16.892Z,99.99
2017-09-15T12:37:16.800Z,99.99
2017-09-15T12:38:16.788Z,99.99
2017-09-15T12:39:16.764Z,99.99
2017-09-15T12:40:16.754Z,99.99
2017-09-15T12:41:16.723Z,99.99
2017-09-15T12:42:16.715Z,99.99
2017-09-15T12:43:16.702Z,99.99
2017-09-15T12:44:16.687Z,99.99
2017-09-15T12:45:16.662Z,99.99
2017-09-15T12:46:16.657Z,99.99
2017-09-15T12:47:16.660Z,99.73
2017-09-15T12:48:16.623Z,99.99
2017-09-15T12:49:16.634Z,99.99
2017-09-15T12:50:16.595Z,99.99
2017-09-15T12:51:16.265Z,99.99
2017-09-15T12:52:16.567Z,99.99